Time;durP1;ratioP1;P1;durP2;ratioP2;P2;SDS_P1;SDS_P2;PMS_P1;PMS_P2;Temp;Humidity;BMP_temperature;BMP_pressure;BME280_temperature;BME280_humidity;BME280_pressure;Samples;Min_cycle;Max_cycle;Signal;HPM_P1;HPM_P2
2021/08/03 00:00:17;;;;;;;2.30;1.50;;;15.90;1.00;;;;;;5054819;28;20941;-77
2021/08/03 00:02:46;;;;;;;2.93;1.50;;;15.90;1.00;;;;;;5054857;28;20423;-77
2021/08/03 00:05:20;;;;;;;1.83;1.20;;;15.90;1.00;;;;;;5055440;28;20402;-77
2021/08/03 00:07:55;;;;;;;2.00;1.50;;;15.90;1.00;;;;;;5059954;28;20427;-78
2021/08/03 00:10:24;;;;;;;3.07;2.07;;;16.00;1.00;;;;;;5040137;28;20464;-77
2021/08/03 00:12:54;;;;;;;2.70;1.70;;;16.00;1.00;;;;;;5058468;28;21174;-78
2021/08/03 00:15:24;;;;;;;4.43;2.37;;;15.80;1.00;;;;;;5056521;28;20501;-78
2021/08/03 00:17:55;;;;;;;7.13;2.40;;;15.80;1.00;;;;;;5036391;28;20463;-77
2021/08/03 00:20:25;;;;;;;4.50;2.53;;;15.80;1.00;;;;;;5052395;28;20446;-77
2021/08/03 00:23:00;;;;;;;9.33;3.13;;;15.80;1.00;;;;;;5049742;28;20423;-77
2021/08/03 00:25:29;;;;;;;2.37;2.07;;;15.70;1.00;;;;;;5051741;28;20397;-77
2021/08/03 00:27:58;;;;;;;5.27;3.53;;;15.70;1.00;;;;;;5050209;28;20445;-77
2021/08/03 00:30:27;;;;;;;4.17;2.80;;;15.70;1.00;;;;;;5051700;28;20945;-77
2021/08/03 00:32:56;;;;;;;2.70;1.50;;;15.70;1.00;;;;;;5052494;28;20521;-76
2021/08/03 00:35:24;;;;;;;3.30;2.20;;;15.50;1.00;;;;;;5036099;28;20439;-77
2021/08/03 00:37:52;;;;;;;4.17;2.87;;;15.40;1.00;;;;;;5053794;28;20901;-77
2021/08/03 00:40:21;;;;;;;2.43;1.67;;;15.20;1.00;;;;;;5056032;28;20985;-78
2021/08/03 00:42:50;;;;;;;3.23;2.10;;;15.20;1.00;;;;;;5057465;28;20404;-78
2021/08/03 00:45:19;;;;;;;3.63;2.00;;;15.10;1.00;;;;;;5053053;28;20419;-78
2021/08/03 00:47:51;;;;;;;2.90;1.83;;;15.20;1.00;;;;;;5051861;28;20452;-76
2021/08/03 00:50:20;;;;;;;2.40;1.83;;;15.10;1.00;;;;;;5053604;28;20999;-77
2021/08/03 00:52:48;;;;;;;3.40;2.33;;;15.10;1.00;;;;;;5053903;28;20450;-78
2021/08/03 00:55:17;;;;;;;5.70;2.70;;;15.20;1.00;;;;;;5051678;28;20445;-74
2021/08/03 00:57:51;;;;;;;2.43;1.67;;;15.30;1.00;;;;;;5059106;28;20418;-78
2021/08/03 01:00:22;;;;;;;2.60;1.97;;;15.30;1.00;;;;;;5041879;28;20525;-75
2021/08/03 01:02:53;;;;;;;2.10;1.30;;;15.40;1.00;;;;;;5060056;28;20467;-75
2021/08/03 01:05:22;;;;;;;5.30;1.33;;;15.50;1.00;;;;;;5043776;28;20802;-76
2021/08/03 01:08:08;;;;;;;2.87;2.00;;;15.50;1.00;;;;;;5043395;28;20527;-76
2021/08/03 01:10:49;;;;;;;3.80;1.67;;;15.50;1.00;;;;;;5058280;28;20435;-75
2021/08/03 01:13:27;;;;;;;2.37;1.30;;;15.60;1.00;;;;;;5057122;28;20431;-75
2021/08/03 01:16:02;;;;;;;1.93;1.27;;;15.60;1.00;;;;;;5043842;28;20462;-78
2021/08/03 01:18:39;;;;;;;1.20;1.10;;;15.50;1.00;;;;;;5039795;28;20413;-78
2021/08/03 01:21:27;;;;;;;2.93;2.33;;;15.20;1.00;;;;;;5038182;28;20545;-77
2021/08/03 01:24:25;;;;;;;5.40;1.63;;;15.20;1.00;;;;;;5036752;28;20434;-77
2021/08/03 01:27:27;;;;;;;1.70;1.57;;;15.20;1.00;;;;;;5037622;28;20510;-77
2021/08/03 01:29:59;;;;;;;2.13;1.60;;;15.10;1.00;;;;;;5031888;28;20412;-76
2021/08/03 01:32:31;;;;;;;3.93;2.20;;;15.30;1.00;;;;;;5036254;28;20943;-78
2021/08/03 01:35:01;;;;;;;2.43;1.43;;;15.40;1.00;;;;;;5057561;28;20445;-78
2021/08/03 01:37:32;;;;;;;1.70;1.27;;;15.40;1.00;;;;;;5058623;28;20406;-77
2021/08/03 01:40:06;;;;;;;1.73;1.57;;;15.50;1.00;;;;;;5074465;28;20419;-74
2021/08/03 01:42:39;;;;;;;3.77;1.17;;;15.50;1.00;;;;;;5057323;28;20461;-74
2021/08/03 01:45:12;;;;;;;2.07;1.53;;;15.50;1.00;;;;;;5057831;28;20442;-76
2021/08/03 01:47:40;;;;;;;2.40;1.17;;;15.40;1.00;;;;;;5075630;28;20399;-74
2021/08/03 01:50:11;;;;;;;3.30;1.50;;;15.10;1.00;;;;;;5066288;28;20442;-76
2021/08/03 01:52:46;;;;;;;2.33;2.10;;;15.10;1.00;;;;;;5055867;28;20506;-74
2021/08/03 01:55:21;;;;;;;2.23;1.47;;;15.30;1.00;;;;;;5060357;28;20433;-77
2021/08/03 01:57:57;;;;;;;2.00;1.63;;;15.30;1.00;;;;;;5046178;28;20435;-75
2021/08/03 02:00:37;;;;;;;3.50;1.20;;;15.40;1.00;;;;;;5046105;28;20462;-79
2021/08/03 02:03:14;;;;;;;2.30;1.67;;;15.40;1.00;;;;;;5050807;28;20572;-74
2021/08/03 02:05:44;;;;;;;2.17;1.33;;;15.40;1.00;;;;;;5062729;28;20394;-77
2021/08/03 02:08:26;;;;;;;4.83;1.57;;;15.40;1.00;;;;;;5056305;28;20449;-75
2021/08/03 02:11:07;;;;;;;1.40;1.20;;;15.60;1.00;;;;;;5059056;28;20976;-79
2021/08/03 02:13:36;;;;;;;3.63;1.97;;;15.70;1.00;;;;;;5064410;28;20446;-74
2021/08/03 02:16:11;;;;;;;2.60;1.23;;;15.60;1.00;;;;;;5050240;28;20485;-78
2021/08/03 02:18:45;;;;;;;2.43;1.50;;;15.60;1.00;;;;;;5068006;28;20423;-75
2021/08/03 02:21:18;;;;;;;3.03;1.40;;;15.50;1.00;;;;;;5046651;28;20449;-74
2021/08/03 02:23:47;;;;;;;1.60;1.27;;;15.50;1.00;;;;;;5061350;28;20522;-76
2021/08/03 02:26:15;;;;;;;2.10;1.60;;;15.50;1.00;;;;;;5061098;28;20424;-76
2021/08/03 02:28:44;;;;;;;5.77;1.57;;;15.60;1.00;;;;;;5040043;28;20446;-79
2021/08/03 02:31:21;;;;;;;2.10;1.80;;;15.40;1.00;;;;;;5057569;28;20465;-77
2021/08/03 02:33:54;;;;;;;1.70;1.60;;;15.30;1.00;;;;;;5039237;28;20434;-77
2021/08/03 02:36:26;;;;;;;2.50;1.37;;;15.10;1.00;;;;;;5054820;28;20494;-78
2021/08/03 02:39:02;;;;;;;1.60;1.13;;;15.00;1.00;;;;;;5035980;28;20527;-74
2021/08/03 02:41:33;;;;;;;2.80;1.73;;;15.10;1.80;;;;;;5056198;28;20456;-78
2021/08/03 02:44:06;;;;;;;1.70;1.60;;;15.10;1.40;;;;;;5056439;28;20419;-77
2021/08/03 02:46:39;;;;;;;1.90;1.33;;;15.00;1.30;;;;;;5053826;28;20967;-76
2021/08/03 02:49:12;;;;;;;1.43;1.20;;;15.10;3.70;;;;;;5054115;28;20466;-78
2021/08/03 02:51:41;;;;;;;1.37;1.00;;;15.40;1.60;;;;;;5052551;28;20532;-76
2021/08/03 02:54:21;;;;;;;1.80;1.57;;;15.50;1.00;;;;;;5052647;28;20446;-78
2021/08/03 02:56:52;;;;;;;2.90;2.00;;;15.30;1.00;;;;;;5033186;28;20459;-79
2021/08/03 02:59:23;;;;;;;2.33;1.47;;;15.30;1.00;;;;;;5052626;28;20450;-78
2021/08/03 03:01:57;;;;;;;1.70;1.20;;;15.30;1.00;;;;;;5055017;28;20512;-77
2021/08/03 03:04:32;;;;;;;8.80;1.53;;;15.30;1.00;;;;;;5055742;28;20481;-77
2021/08/03 03:07:06;;;;;;;1.93;1.50;;;15.20;1.00;;;;;;5034993;28;20443;-77
2021/08/03 03:09:37;;;;;;;3.80;1.43;;;15.20;2.90;;;;;;5050660;28;20942;-76
2021/08/03 03:12:07;;;;;;;2.40;1.67;;;15.40;2.80;;;;;;5036150;28;20447;-77
2021/08/03 03:14:38;;;;;;;2.33;1.60;;;15.40;1.30;;;;;;5053862;28;20391;-80
2021/08/03 03:17:11;;;;;;;1.83;1.40;;;15.40;1.20;;;;;;5056469;28;20408;-74
2021/08/03 03:19:41;;;;;;;2.90;1.50;;;15.70;1.00;;;;;;5051688;28;20454;-77
2021/08/03 03:22:11;;;;;;;2.50;1.70;;;15.80;1.00;;;;;;5034216;28;20471;-77
2021/08/03 03:24:43;;;;;;;2.50;1.40;;;15.80;1.00;;;;;;5053038;28;20415;-75
2021/08/03 03:27:14;;;;;;;2.40;1.30;;;15.90;1.00;;;;;;5051291;28;20432;-73
2021/08/03 03:29:44;;;;;;;4.33;1.70;;;16.00;1.00;;;;;;5051876;28;20419;-77
2021/08/03 03:32:15;;;;;;;2.43;1.40;;;16.00;1.00;;;;;;5056218;28;20474;-76
2021/08/03 03:34:45;;;;;;;1.60;1.50;;;16.00;1.00;;;;;;5039853;28;20414;-76
2021/08/03 03:37:15;;;;;;;1.97;1.77;;;16.00;1.00;;;;;;5045233;28;20435;-77
2021/08/03 03:39:44;;;;;;;4.23;1.50;;;15.90;1.00;;;;;;5054586;28;20424;-74
2021/08/03 03:42:13;;;;;;;3.73;1.80;;;15.80;1.00;;;;;;5051798;28;20473;-76
2021/08/03 03:44:43;;;;;;;3.30;1.93;;;16.00;1.00;;;;;;5036369;28;20469;-75
2021/08/03 03:47:20;;;;;;;4.33;2.20;;;16.10;1.00;;;;;;5053038;28;20466;-78
2021/08/03 03:49:58;;;;;;;2.17;1.43;;;16.30;1.00;;;;;;5035554;28;20936;-77
2021/08/03 03:52:31;;;;;;;2.93;2.00;;;16.40;1.00;;;;;;5051113;28;21107;-78
2021/08/03 03:55:01;;;;;;;2.40;1.50;;;16.70;1.00;;;;;;5053658;28;20452;-75
2021/08/03 03:57:31;;;;;;;3.10;1.63;;;16.90;1.00;;;;;;5051630;28;21289;-78
2021/08/03 04:00:00;;;;;;;8.30;1.63;;;16.70;1.00;;;;;;5035663;28;20439;-78
2021/08/03 04:02:34;;;;;;;5.27;1.87;;;16.70;1.00;;;;;;5053191;28;20455;-74
2021/08/03 04:05:06;;;;;;;3.60;2.20;;;16.90;1.00;;;;;;5056003;28;20518;-77
2021/08/03 04:07:36;;;;;;;2.60;1.67;;;17.10;1.00;;;;;;5038311;28;20478;-77
2021/08/03 04:10:08;;;;;;;2.50;1.70;;;16.80;1.00;;;;;;5053390;28;20427;-77
2021/08/03 04:12:38;;;;;;;2.50;1.87;;;16.90;1.00;;;;;;5040254;28;20500;-75
2021/08/03 04:15:09;;;;;;;2.57;2.00;;;17.30;1.00;;;;;;5049536;28;20435;-77
2021/08/03 04:17:40;;;;;;;4.80;2.37;;;17.40;1.00;;;;;;5049849;28;20443;-77
2021/08/03 04:20:10;;;;;;;3.70;2.20;;;17.30;1.00;;;;;;5049135;28;20437;-75
2021/08/03 04:22:38;;;;;;;3.10;1.80;;;17.20;1.00;;;;;;5065564;28;20459;-75
2021/08/03 04:25:08;;;;;;;4.63;2.27;;;17.00;1.00;;;;;;5050130;28;20473;-77
2021/08/03 04:27:37;;;;;;;2.97;1.60;;;16.80;1.00;;;;;;5068320;28;20499;-75
2021/08/03 04:30:08;;;;;;;2.50;1.83;;;16.90;1.00;;;;;;5068843;28;20429;-77
2021/08/03 04:32:36;;;;;;;2.90;2.00;;;16.90;1.00;;;;;;5067741;28;20450;-75
2021/08/03 04:35:08;;;;;;;4.77;2.63;;;16.80;1.00;;;;;;5065975;28;20433;-77
2021/08/03 04:37:40;;;;;;;2.70;1.77;;;16.80;1.00;;;;;;5066798;28;20618;-75
2021/08/03 04:40:09;;;;;;;1.90;1.30;;;16.90;1.00;;;;;;5069215;28;20430;-76
2021/08/03 04:42:38;;;;;;;2.73;1.80;;;17.10;1.00;;;;;;5065228;28;20726;-78
2021/08/03 04:45:08;;;;;;;2.47;1.70;;;16.80;1.00;;;;;;5064023;28;20425;-75
2021/08/03 04:47:42;;;;;;;2.13;1.93;;;16.90;1.00;;;;;;5041074;28;20446;-79
2021/08/03 04:50:14;;;;;;;4.73;1.33;;;17.10;1.00;;;;;;5058847;28;20435;-81
2021/08/03 04:52:43;;;;;;;3.10;1.50;;;17.30;1.00;;;;;;5062025;28;20398;-75
2021/08/03 04:55:12;;;;;;;3.13;2.30;;;17.30;1.00;;;;;;5061371;28;20455;-76
2021/08/03 04:57:42;;;;;;;3.10;1.40;;;17.50;1.00;;;;;;5063589;28;20422;-75
2021/08/03 05:00:12;;;;;;;3.83;1.53;;;17.30;1.00;;;;;;5063916;28;20518;-79
2021/08/03 05:02:41;;;;;;;1.53;1.10;;;17.20;1.00;;;;;;5062824;28;20995;-78
2021/08/03 05:05:12;;;;;;;1.87;1.63;;;17.10;1.00;;;;;;5062204;28;20427;-78
2021/08/03 05:07:41;;;;;;;2.83;2.10;;;17.10;1.00;;;;;;5061411;28;20402;-74
2021/08/03 05:10:13;;;;;;;2.87;2.10;;;17.50;1.00;;;;;;5061026;28;20389;-75
2021/08/03 05:12:41;;;;;;;1.90;1.70;;;17.60;1.00;;;;;;5062554;28;20394;-76
2021/08/03 05:15:11;;;;;;;2.13;1.80;;;17.60;1.00;;;;;;5063251;28;20419;-78
2021/08/03 05:17:39;;;;;;;5.43;1.70;;;17.60;1.00;;;;;;5064347;28;20466;-75
2021/08/03 05:20:08;;;;;;;2.00;1.70;;;17.60;1.00;;;;;;5064941;28;20419;-75
2021/08/03 05:22:38;;;;;;;2.07;1.57;;;17.60;1.00;;;;;;5069292;28;20419;-78
2021/08/03 05:25:07;;;;;;;2.10;1.67;;;17.50;1.00;;;;;;5064585;28;20471;-78
2021/08/03 05:27:36;;;;;;;1.97;1.60;;;17.50;1.00;;;;;;5064179;28;20476;-78
2021/08/03 05:30:06;;;;;;;5.37;1.67;;;17.50;1.00;;;;;;5043695;28;20439;-77
2021/08/03 05:32:35;;;;;;;1.57;1.37;;;17.50;1.00;;;;;;5042945;28;21036;-76
2021/08/03 05:35:05;;;;;;;3.90;1.77;;;17.50;1.00;;;;;;5059774;28;20433;-77
2021/08/03 05:37:34;;;;;;;2.57;1.60;;;17.70;1.00;;;;;;5057207;28;20415;-77
2021/08/03 05:40:08;;;;;;;2.20;1.80;;;18.00;1.00;;;;;;5056924;28;20406;-76
2021/08/03 05:42:37;;;;;;;2.07;1.70;;;18.20;1.00;;;;;;5060127;28;20444;-77
2021/08/03 05:45:06;;;;;;;2.27;1.67;;;18.50;1.00;;;;;;5056718;28;20839;-77
2021/08/03 05:47:35;;;;;;;3.50;2.50;;;18.60;1.00;;;;;;5057156;28;20461;-78
2021/08/03 05:50:05;;;;;;;3.37;1.83;;;18.60;1.00;;;;;;5070968;22;20397;-71
2021/08/03 05:52:33;;;;;;;3.30;2.20;;;18.50;1.00;;;;;;5032368;28;20529;-71
2021/08/03 05:55:03;;;;;;;2.07;1.70;;;18.50;1.00;;;;;;5030950;28;20435;-73
2021/08/03 05:57:31;;;;;;;1.93;1.53;;;18.40;1.00;;;;;;5031933;28;20813;-73
2021/08/03 05:59:59;;;;;;;3.63;1.47;;;18.70;1.00;;;;;;5034054;28;20411;-73
2021/08/03 06:02:27;;;;;;;2.90;1.83;;;18.80;1.00;;;;;;5034789;28;20423;-73
2021/08/03 06:04:56;;;;;;;4.00;1.67;;;18.70;1.00;;;;;;5033873;28;20496;-73
2021/08/03 06:07:26;;;;;;;6.20;2.30;;;18.30;1.00;;;;;;5033706;28;20471;-73
2021/08/03 06:09:57;;;;;;;4.43;2.43;;;18.30;1.00;;;;;;5033596;28;20414;-70
2021/08/03 06:12:28;;;;;;;3.37;2.00;;;18.40;1.00;;;;;;5016473;28;20428;-72
2021/08/03 06:14:57;;;;;;;5.67;2.23;;;18.00;1.00;;;;;;5034632;28;20954;-69
2021/08/03 06:17:35;;;;;;;2.00;1.40;;;17.80;1.00;;;;;;5034061;28;20440;-72
2021/08/03 06:20:05;;;;;;;3.40;2.27;;;18.00;1.00;;;;;;5038076;28;20428;-72
2021/08/03 06:22:35;;;;;;;4.63;1.63;;;18.30;1.00;;;;;;5041856;28;20863;-73
2021/08/03 06:25:07;;;;;;;3.50;1.63;;;18.20;1.00;;;;;;5042944;28;20475;-70
2021/08/03 06:27:37;;;;;;;5.30;2.00;;;18.40;1.00;;;;;;5045648;28;20434;-70
2021/08/03 06:30:07;;;;;;;3.47;1.97;;;18.40;1.00;;;;;;5044665;28;20456;-70
2021/08/03 06:32:36;;;;;;;3.23;1.50;;;18.50;1.00;;;;;;5035619;28;20428;-73
2021/08/03 06:35:06;;;;;;;2.10;1.90;;;18.50;1.00;;;;;;5033307;28;20832;-72
2021/08/03 06:37:34;;;;;;;2.90;1.97;;;18.70;1.00;;;;;;5032606;28;20926;-72
2021/08/03 06:40:02;;;;;;;4.57;2.50;;;18.50;1.00;;;;;;5032492;28;20424;-72
2021/08/03 06:42:47;;;;;;;3.30;2.30;;;18.30;1.00;;;;;;5033087;28;20420;-73
2021/08/03 06:45:19;;;;;;;2.63;1.97;;;18.00;1.00;;;;;;5032379;28;20521;-72
2021/08/03 06:48:00;;;;;;;2.20;2.00;;;18.20;1.00;;;;;;5032510;28;20962;-72
2021/08/03 06:50:31;;;;;;;5.40;2.20;;;18.60;1.00;;;;;;5031993;28;20779;-72
2021/08/03 06:53:01;;;;;;;3.03;2.07;;;19.10;1.00;;;;;;5032224;28;20449;-72
2021/08/03 06:55:32;;;;;;;5.13;1.83;;;19.30;1.00;;;;;;5031819;28;20406;-72
2021/08/03 06:58:03;;;;;;;8.70;1.63;;;19.40;1.00;;;;;;5032728;28;20415;-72
2021/08/03 07:00:38;;;;;;;4.20;2.23;;;19.40;1.00;;;;;;5032410;28;20446;-72
2021/08/03 07:03:08;;;;;;;2.60;2.40;;;19.30;1.00;;;;;;5035282;28;20423;-72
2021/08/03 07:05:43;;;;;;;2.10;1.80;;;19.30;1.00;;;;;;5031551;28;20471;-73
2021/08/03 07:08:13;;;;;;;2.63;2.30;;;19.30;1.00;;;;;;5032313;28;20386;-73
2021/08/03 07:10:42;;;;;;;2.37;2.17;;;19.10;1.00;;;;;;5032727;28;20447;-73
2021/08/03 07:13:13;;;;;;;2.50;2.07;;;19.10;1.00;;;;;;5015093;28;20982;-73
2021/08/03 07:15:42;;;;;;;3.63;1.90;;;19.20;1.00;;;;;;5033039;28;20715;-72
2021/08/03 07:18:12;;;;;;;3.40;2.70;;;19.30;1.00;;;;;;5034403;28;20424;-72
2021/08/03 07:20:41;;;;;;;3.50;2.23;;;19.40;1.00;;;;;;5037180;28;20483;-69
2021/08/03 07:23:11;;;;;;;3.20;1.90;;;19.60;1.00;;;;;;5045263;28;20609;-72
2021/08/03 07:25:40;;;;;;;2.03;1.60;;;19.60;1.00;;;;;;5033643;28;20562;-72
2021/08/03 07:28:08;;;;;;;3.07;2.00;;;19.60;1.00;;;;;;5031431;28;20996;-72
2021/08/03 07:30:38;;;;;;;3.20;2.43;;;19.50;1.00;;;;;;5031582;28;20452;-72
2021/08/03 07:33:06;;;;;;;3.93;2.53;;;19.70;1.00;;;;;;5030863;28;20424;-70
2021/08/03 07:35:34;;;;;;;4.10;3.20;;;19.90;1.00;;;;;;5030802;28;20939;-71
2021/08/03 07:38:02;;;;;;;5.33;4.87;;;19.90;1.00;;;;;;5030961;28;20396;-71
2021/08/03 07:40:30;;;;;;;4.00;2.70;;;19.90;1.00;;;;;;5012982;28;20491;-73
2021/08/03 07:42:59;;;;;;;3.07;2.77;;;20.30;1.00;;;;;;5029506;28;20433;-73
2021/08/03 07:45:28;;;;;;;4.30;2.17;;;20.30;1.00;;;;;;5030458;28;21061;-73
2021/08/03 07:47:58;;;;;;;3.63;2.47;;;20.50;1.00;;;;;;5030284;28;20507;-73
2021/08/03 07:50:26;;;;;;;5.33;2.30;;;20.70;1.00;;;;;;5030596;28;20660;-73
2021/08/03 07:52:55;;;;;;;2.87;1.93;;;20.90;1.00;;;;;;5031108;28;20416;-72
2021/08/03 07:55:23;;;;;;;5.50;2.50;;;21.00;1.00;;;;;;5030294;28;20424;-73
2021/08/03 07:57:51;;;;;;;2.93;2.00;;;21.30;1.00;;;;;;5030559;28;20424;-73
2021/08/03 08:00:19;;;;;;;3.03;2.07;;;21.50;1.00;;;;;;5030634;28;20467;-73
2021/08/03 08:02:48;;;;;;;4.13;1.80;;;21.60;1.00;;;;;;5030870;28;20417;-73
2021/08/03 08:05:19;;;;;;;3.03;1.87;;;21.60;1.00;;;;;;5031179;28;20455;-73
2021/08/03 08:07:47;;;;;;;2.10;1.90;;;21.60;1.00;;;;;;5012953;28;20972;-73
2021/08/03 08:10:16;;;;;;;4.13;2.50;;;22.00;1.00;;;;;;5031116;28;20420;-73
2021/08/03 08:12:44;;;;;;;3.40;3.10;;;22.40;1.00;;;;;;5030490;28;20900;-73
2021/08/03 08:15:13;;;;;;;3.10;2.40;;;22.30;1.00;;;;;;5029530;28;20398;-72
2021/08/03 08:17:41;;;;;;;2.40;1.53;;;22.30;1.00;;;;;;5030206;28;20522;-69
2021/08/03 08:20:13;;;;;;;7.83;2.60;;;22.40;1.00;;;;;;5030305;28;20449;-71
2021/08/03 08:22:44;;;;;;;6.83;1.60;;;22.30;1.00;;;;;;5030140;28;20485;-72
2021/08/03 08:25:13;;;;;;;2.03;1.83;;;22.10;1.00;;;;;;5029810;28;20470;-72
2021/08/03 08:27:42;;;;;;;4.87;2.80;;;21.50;1.00;;;;;;5030143;28;20394;-72
2021/08/03 08:30:11;;;;;;;6.27;2.40;;;21.20;1.00;;;;;;5030141;28;20506;-73
2021/08/03 08:32:42;;;;;;;3.00;1.40;;;21.30;1.00;;;;;;5012301;28;20407;-71
2021/08/03 08:35:30;;;;;;;2.17;1.53;;;21.00;1.00;;;;;;5030251;28;20398;-72
2021/08/03 08:38:00;;;;;;;2.40;1.67;;;21.00;1.00;;;;;;5029724;28;20414;-72
2021/08/03 08:40:28;;;;;;;4.00;2.33;;;21.10;1.00;;;;;;5030309;28;20928;-71
2021/08/03 08:42:57;;;;;;;1.97;1.77;;;21.10;1.00;;;;;;5030030;28;20394;-72
2021/08/03 08:45:25;;;;;;;2.83;1.60;;;21.20;1.00;;;;;;5030299;28;20772;-72
2021/08/03 08:47:53;;;;;;;2.10;1.50;;;21.40;1.00;;;;;;5012297;28;20439;-73
2021/08/03 08:50:22;;;;;;;1.53;1.17;;;21.30;1.00;;;;;;5029986;28;20459;-73
2021/08/03 08:52:53;;;;;;;1.93;1.67;;;21.10;1.00;;;;;;5030379;28;20409;-72
2021/08/03 08:55:25;;;;;;;2.70;1.60;;;20.70;1.00;;;;;;5029814;28;20433;-73
2021/08/03 08:57:53;;;;;;;1.90;1.53;;;20.90;1.00;;;;;;5029954;28;20405;-72
2021/08/03 09:00:23;;;;;;;3.10;2.00;;;21.20;1.00;;;;;;5030340;28;20928;-72
2021/08/03 09:02:53;;;;;;;5.43;2.13;;;21.30;1.00;;;;;;5029850;28;20813;-72
2021/08/03 09:05:31;;;;;;;2.80;1.50;;;21.40;1.00;;;;;;5031928;28;20500;-73
2021/08/03 09:08:01;;;;;;;3.63;1.53;;;21.60;1.00;;;;;;5030605;28;20409;-72
2021/08/03 09:10:34;;;;;;;5.07;1.80;;;21.50;1.00;;;;;;5029162;28;20426;-71
2021/08/03 09:13:06;;;;;;;2.80;1.63;;;21.50;1.00;;;;;;5030337;28;21004;-71
2021/08/03 09:15:36;;;;;;;6.47;1.73;;;21.70;1.00;;;;;;5029920;28;21190;-71
2021/08/03 09:18:16;;;;;;;1.83;1.30;;;21.60;1.00;;;;;;5029680;28;20427;-69
2021/08/03 09:20:47;;;;;;;1.87;1.53;;;22.20;1.00;;;;;;5029329;28;20584;-70
2021/08/03 09:23:16;;;;;;;1.97;1.20;;;22.60;1.00;;;;;;5031252;28;20886;-72
2021/08/03 09:25:57;;;;;;;2.13;1.37;;;22.50;1.00;;;;;;5029529;28;20459;-72
2021/08/03 09:28:26;;;;;;;2.37;1.23;;;22.30;1.00;;;;;;5030216;28;20430;-71
2021/08/03 09:30:54;;;;;;;2.43;1.10;;;22.50;1.00;;;;;;5033561;28;21044;-71
2021/08/03 09:33:27;;;;;;;1.70;1.30;;;22.70;1.00;;;;;;5033993;28;21140;-73
2021/08/03 09:35:56;;;;;;;2.10;1.50;;;23.00;1.00;;;;;;5033835;28;20486;-71
2021/08/03 09:38:26;;;;;;;2.40;1.20;;;22.70;1.00;;;;;;5033755;28;20428;-72
2021/08/03 09:41:09;;;;;;;2.03;1.30;;;22.40;1.00;;;;;;5034332;28;20614;-73
2021/08/03 09:43:39;;;;;;;2.83;1.40;;;22.00;1.00;;;;;;5015765;28;20473;-73
2021/08/03 09:46:07;;;;;;;2.03;1.00;;;22.00;1.00;;;;;;5033063;28;20952;-73
2021/08/03 09:48:36;;;;;;;2.30;1.43;;;22.00;1.00;;;;;;5034079;28;20470;-72
2021/08/03 09:51:07;;;;;;;3.73;1.33;;;22.20;1.00;;;;;;5033240;28;20481;-73
2021/08/03 09:53:46;;;;;;;2.03;1.50;;;22.10;1.00;;;;;;5033513;28;20909;-70
2021/08/03 09:56:18;;;;;;;2.97;1.67;;;22.10;1.00;;;;;;5033197;28;20424;-73
2021/08/03 09:58:51;;;;;;;2.27;1.43;;;21.90;1.00;;;;;;5015895;28;20439;-72
2021/08/03 10:01:27;;;;;;;1.97;1.70;;;21.70;1.00;;;;;;5034092;28;20497;-73
2021/08/03 10:03:59;;;;;;;1.77;1.60;;;21.30;1.00;;;;;;5033512;28;20419;-73
2021/08/03 10:06:27;;;;;;;3.50;1.30;;;21.30;1.00;;;;;;5033224;28;20465;-74
2021/08/03 10:08:56;;;;;;;1.70;1.10;;;21.20;1.00;;;;;;5032921;28;20428;-71
2021/08/03 10:11:26;;;;;;;2.33;0.80;;;21.20;1.00;;;;;;5033308;28;21005;-73
2021/08/03 10:13:56;;;;;;;2.20;1.80;;;21.40;1.00;;;;;;5014841;28;20407;-74
2021/08/03 10:16:25;;;;;;;2.43;1.47;;;21.50;1.00;;;;;;5033334;28;20761;-72
2021/08/03 10:18:55;;;;;;;5.20;1.50;;;21.30;1.00;;;;;;5033177;28;20893;-71
2021/08/03 10:21:31;;;;;;;3.90;1.93;;;21.20;1.00;;;;;;5033014;28;20509;-72
2021/08/03 10:24:03;;;;;;;3.67;1.27;;;21.20;1.00;;;;;;5014715;28;20820;-72
2021/08/03 10:26:33;;;;;;;4.30;1.30;;;21.40;1.00;;;;;;5032878;28;20471;-68
2021/08/03 10:29:20;;;;;;;2.30;1.20;;;21.70;1.00;;;;;;5032994;28;20785;-72
2021/08/03 10:31:49;;;;;;;3.30;1.57;;;21.50;1.00;;;;;;5031889;28;20514;-72
2021/08/03 10:34:54;;;;;;;1.90;1.40;;;21.20;1.00;;;;;;5013709;28;20477;-73
2021/08/03 10:37:24;;;;;;;1.90;1.47;;;21.00;1.00;;;;;;5032145;28;20972;-73
2021/08/03 10:39:54;;;;;;;2.00;1.20;;;21.10;1.00;;;;;;5013630;28;20811;-71
2021/08/03 10:42:24;;;;;;;2.80;1.17;;;21.20;1.00;;;;;;5031943;28;20428;-72
2021/08/03 10:44:57;;;;;;;1.93;1.27;;;21.20;1.00;;;;;;5032114;28;20519;-73
2021/08/03 10:47:47;;;;;;;1.50;1.10;;;21.30;1.00;;;;;;5032100;28;20454;-73
2021/08/03 10:50:28;;;;;;;2.20;1.07;;;21.90;1.00;;;;;;5031883;28;20410;-73
2021/08/03 10:52:58;;;;;;;1.90;0.97;;;22.40;1.00;;;;;;5014471;28;20530;-73
2021/08/03 10:55:38;;;;;;;2.03;1.27;;;22.60;1.00;;;;;;5031847;28;20451;-72
2021/08/03 10:58:28;;;;;;;1.97;1.17;;;22.50;1.00;;;;;;5032035;28;20862;-70
2021/08/03 11:01:00;;;;;;;2.30;1.20;;;22.70;1.00;;;;;;5032076;28;20414;-73
2021/08/03 11:03:44;;;;;;;1.67;1.10;;;22.60;1.00;;;;;;5032050;28;20893;-73
2021/08/03 11:06:33;;;;;;;1.30;1.03;;;22.80;1.00;;;;;;5031944;28;20438;-73
2021/08/03 11:09:02;;;;;;;1.43;0.90;;;22.50;1.00;;;;;;5032172;28;20460;-73
2021/08/03 11:11:31;;;;;;;1.80;1.20;;;22.80;1.00;;;;;;5032077;28;20415;-71
2021/08/03 11:14:04;;;;;;;1.90;1.17;;;23.20;1.00;;;;;;5031729;28;20527;-70
2021/08/03 11:16:47;;;;;;;1.67;1.00;;;23.40;1.00;;;;;;5031163;28;20491;-70
2021/08/03 11:19:30;;;;;;;1.93;1.50;;;23.30;1.00;;;;;;5031144;28;20423;-69
2021/08/03 11:21:58;;;;;;;1.80;1.57;;;23.50;1.00;;;;;;5013498;28;20785;-73
2021/08/03 11:24:37;;;;;;;3.43;2.53;;;24.30;1.00;;;;;;5031208;28;20420;-71
2021/08/03 11:27:06;;;;;;;1.83;1.27;;;25.00;1.00;;;;;;5030662;28;20904;-71
2021/08/03 11:29:39;;;;;;;2.63;1.33;;;25.40;1.00;;;;;;5030925;28;20406;-72
2021/08/03 11:32:09;;;;;;;1.30;1.07;;;25.50;1.00;;;;;;5031068;28;20944;-74
2021/08/03 11:34:40;;;;;;;1.53;1.30;;;25.60;1.00;;;;;;5031065;28;20417;-72
2021/08/03 11:37:14;;;;;;;2.60;1.27;;;25.10;1.00;;;;;;5030266;28;20431;-74
2021/08/03 11:39:52;;;;;;;2.10;1.20;;;24.80;1.00;;;;;;5029490;28;20450;-73
2021/08/03 11:42:40;;;;;;;3.10;1.90;;;24.80;1.00;;;;;;5012785;28;20455;-75
2021/08/03 11:45:13;;;;;;;1.53;1.20;;;24.60;1.00;;;;;;5030695;28;20838;-75
2021/08/03 11:47:49;;;;;;;4.00;2.07;;;24.30;1.00;;;;;;5031128;28;20508;-73
2021/08/03 11:50:20;;;;;;;2.50;1.90;;;23.70;1.00;;;;;;5049057;22;20395;-77
2021/08/03 11:52:48;;;;;;;2.43;1.70;;;23.40;1.00;;;;;;5070979;28;20415;-77
2021/08/03 11:55:16;;;;;;;3.77;1.80;;;23.00;1.00;;;;;;5053566;28;20442;-77
2021/08/03 11:57:50;;;;;;;1.70;1.53;;;23.10;1.00;;;;;;5073602;28;20435;-77
2021/08/03 12:00:23;;;;;;;3.20;1.23;;;23.50;1.00;;;;;;5072206;28;20421;-77
2021/08/03 12:02:54;;;;;;;2.43;1.50;;;23.60;1.00;;;;;;5075500;28;20464;-77
2021/08/03 12:05:30;;;;;;;3.77;1.80;;;23.40;1.00;;;;;;5052915;28;20464;-76
2021/08/03 12:08:02;;;;;;;1.83;1.50;;;23.50;1.00;;;;;;5072390;28;20978;-78
2021/08/03 12:10:32;;;;;;;2.10;1.60;;;23.70;1.00;;;;;;5074793;28;20417;-77
2021/08/03 12:13:01;;;;;;;3.53;1.97;;;23.90;1.00;;;;;;5056331;28;20509;-77
2021/08/03 12:15:31;;;;;;;2.47;1.77;;;23.70;1.00;;;;;;5073314;28;20397;-76
2021/08/03 12:18:08;;;;;;;1.70;1.20;;;23.90;1.00;;;;;;5073863;28;20422;-77
2021/08/03 12:20:46;;;;;;;2.60;1.80;;;24.40;1.00;;;;;;5071514;28;20442;-77
2021/08/03 12:23:24;;;;;;;2.10;1.80;;;24.70;1.00;;;;;;5074787;28;20806;-77
2021/08/03 12:25:59;;;;;;;1.70;1.30;;;24.40;1.00;;;;;;5074596;28;20475;-78
2021/08/03 12:28:39;;;;;;;2.20;2.00;;;24.30;1.00;;;;;;5072203;28;20956;-78
2021/08/03 12:31:20;;;;;;;3.93;1.87;;;24.90;1.00;;;;;;5066763;28;20479;-77
2021/08/03 12:33:50;;;;;;;9.27;2.27;;;25.10;1.00;;;;;;5060368;28;20424;-78
2021/08/03 12:36:20;;;;;;;3.30;1.77;;;25.10;1.00;;;;;;5055068;28;20427;-78
2021/08/03 12:39:06;;;;;;;2.10;1.53;;;24.90;1.00;;;;;;5052904;28;20500;-77
2021/08/03 12:41:36;;;;;;;2.13;1.63;;;24.60;1.00;;;;;;5050647;28;20418;-77
2021/08/03 12:44:04;;;;;;;1.53;1.43;;;24.50;1.00;;;;;;5051546;28;20935;-77
2021/08/03 12:46:36;;;;;;;2.10;1.80;;;24.10;1.00;;;;;;5043347;28;21239;-77
2021/08/03 12:49:06;;;;;;;4.30;1.70;;;24.00;1.00;;;;;;5051436;28;21272;-77
2021/08/03 12:51:35;;;;;;;3.00;2.30;;;23.80;1.00;;;;;;5050481;28;20502;-76
2021/08/03 12:54:18;;;;;;;3.00;2.17;;;24.00;1.00;;;;;;5051401;28;20420;-78
2021/08/03 12:56:57;;;;;;;2.60;2.03;;;24.40;1.00;;;;;;5051703;28;20393;-77
2021/08/03 12:59:40;;;;;;;1.70;1.60;;;24.20;1.00;;;;;;5050829;28;20408;-77
2021/08/03 13:02:12;;;;;;;3.07;2.07;;;24.10;1.00;;;;;;5052345;28;20434;-76
2021/08/03 13:04:40;;;;;;;1.70;1.50;;;23.90;1.00;;;;;;5052506;28;20489;-77
2021/08/03 13:07:09;;;;;;;3.90;1.83;;;23.90;1.00;;;;;;5057155;28;20393;-76
2021/08/03 13:09:38;;;;;;;2.00;1.80;;;23.80;1.00;;;;;;5061965;28;20386;-78
2021/08/03 13:12:08;;;;;;;4.57;2.47;;;23.90;1.00;;;;;;5058331;28;20554;-78
2021/08/03 13:14:37;;;;;;;1.83;1.67;;;24.00;1.00;;;;;;5054827;28;20419;-77
2021/08/03 13:17:05;;;;;;;4.37;2.60;;;23.90;1.00;;;;;;5064468;28;20433;-77
2021/08/03 13:19:35;;;;;;;2.23;1.87;;;23.60;1.00;;;;;;5074457;28;20396;-77
2021/08/03 13:22:04;;;;;;;3.43;2.57;;;23.00;1.00;;;;;;5056380;28;20450;-77